sensor_id;sensor_type;location;lat;lon;timestamp;P1;durP1;ratioP1;P2;durP2;ratioP2
11328;SDS011;5719;42.714;23.732;2024-02-26T00:02:00;14.63;;;9.32;;
11328;SDS011;5719;42.714;23.732;2024-02-26T00:04:26;14.32;;;9.40;;
11328;SDS011;5719;42.714;23.732;2024-02-26T00:06:53;15.25;;;8.55;;
11328;SDS011;5719;42.714;23.732;2024-02-26T00:09:21;13.88;;;9.70;;
11328;SDS011;5719;42.714;23.732;2024-02-26T00:11:47;19.40;;;8.88;;
11328;SDS011;5719;42.714;23.732;2024-02-26T00:14:14;16.70;;;9.20;;
11328;SDS011;5719;42.714;23.732;2024-02-26T00:16:41;16.50;;;10.00;;
11328;SDS011;5719;42.714;23.732;2024-02-26T00:19:11;16.10;;;10.18;;
11328;SDS011;5719;42.714;23.732;2024-02-26T00:21:39;17.52;;;10.23;;
11328;SDS011;5719;42.714;23.732;2024-02-26T00:24:07;19.00;;;10.82;;
11328;SDS011;5719;42.714;23.732;2024-02-26T00:26:34;18.27;;;10.25;;
11328;SDS011;5719;42.714;23.732;2024-02-26T00:29:00;21.20;;;11.57;;
11328;SDS011;5719;42.714;23.732;2024-02-26T00:31:27;17.60;;;10.40;;
11328;SDS011;5719;42.714;23.732;2024-02-26T00:33:54;15.82;;;9.82;;
11328;SDS011;5719;42.714;23.732;2024-02-26T00:36:22;18.73;;;11.32;;
11328;SDS011;5719;42.714;23.732;2024-02-26T00:38:49;15.48;;;10.02;;
11328;SDS011;5719;42.714;23.732;2024-02-26T00:41:16;14.40;;;9.20;;
11328;SDS011;5719;42.714;23.732;2024-02-26T00:43:43;12.93;;;8.15;;
11328;SDS011;5719;42.714;23.732;2024-02-26T00:46:10;19.70;;;8.75;;
11328;SDS011;5719;42.714;23.732;2024-02-26T00:48:37;18.92;;;9.77;;
11328;SDS011;5719;42.714;23.732;2024-02-26T00:53:33;11.60;;;8.35;;
11328;SDS011;5719;42.714;23.732;2024-02-26T00:56:00;15.30;;;8.02;;
11328;SDS011;5719;42.714;23.732;2024-02-26T00:58:27;13.40;;;8.88;;
11328;SDS011;5719;42.714;23.732;2024-02-26T01:00:54;14.23;;;9.13;;
11328;SDS011;5719;42.714;23.732;2024-02-26T01:03:21;17.67;;;10.27;;
11328;SDS011;5719;42.714;23.732;2024-02-26T01:05:47;16.58;;;10.98;;
11328;SDS011;5719;42.714;23.732;2024-02-26T01:08:14;18.55;;;10.18;;
11328;SDS011;5719;42.714;23.732;2024-02-26T01:10:42;15.48;;;10.18;;
11328;SDS011;5719;42.714;23.732;2024-02-26T01:13:09;17.30;;;10.18;;
11328;SDS011;5719;42.714;23.732;2024-02-26T01:15:36;16.42;;;10.07;;
11328;SDS011;5719;42.714;23.732;2024-02-26T01:18:02;15.90;;;10.05;;
11328;SDS011;5719;42.714;23.732;2024-02-26T01:20:29;22.13;;;10.95;;
11328;SDS011;5719;42.714;23.732;2024-02-26T01:22:56;16.50;;;9.98;;
11328;SDS011;5719;42.714;23.732;2024-02-26T01:25:23;18.23;;;10.55;;
11328;SDS011;5719;42.714;23.732;2024-02-26T01:27:51;18.30;;;9.80;;
11328;SDS011;5719;42.714;23.732;2024-02-26T01:30:18;17.95;;;9.35;;
11328;SDS011;5719;42.714;23.732;2024-02-26T01:32:45;14.35;;;8.77;;
11328;SDS011;5719;42.714;23.732;2024-02-26T01:35:12;16.50;;;8.43;;
11328;SDS011;5719;42.714;23.732;2024-02-26T01:37:38;15.95;;;7.20;;
11328;SDS011;5719;42.714;23.732;2024-02-26T01:40:07;11.52;;;6.57;;
11328;SDS011;5719;42.714;23.732;2024-02-26T01:42:34;14.00;;;7.18;;
11328;SDS011;5719;42.714;23.732;2024-02-26T01:45:05;16.13;;;6.90;;
11328;SDS011;5719;42.714;23.732;2024-02-26T01:47:40;13.30;;;6.50;;
11328;SDS011;5719;42.714;23.732;2024-02-26T01:50:07;7.53;;;5.80;;
11328;SDS011;5719;42.714;23.732;2024-02-26T01:52:34;8.15;;;6.07;;
11328;SDS011;5719;42.714;23.732;2024-02-26T01:55:01;11.00;;;6.20;;
11328;SDS011;5719;42.714;23.732;2024-02-26T01:57:28;11.10;;;6.30;;
11328;SDS011;5719;42.714;23.732;2024-02-26T01:59:55;9.18;;;5.68;;
11328;SDS011;5719;42.714;23.732;2024-02-26T02:02:24;11.38;;;6.47;;
11328;SDS011;5719;42.714;23.732;2024-02-26T02:04:51;10.30;;;6.78;;
11328;SDS011;5719;42.714;23.732;2024-02-26T02:07:18;12.00;;;7.03;;
11328;SDS011;5719;42.714;23.732;2024-02-26T02:09:46;15.65;;;7.20;;
11328;SDS011;5719;42.714;23.732;2024-02-26T02:12:13;13.75;;;6.75;;
11328;SDS011;5719;42.714;23.732;2024-02-26T02:14:40;15.00;;;7.18;;
11328;SDS011;5719;42.714;23.732;2024-02-26T02:17:07;12.75;;;6.95;;
11328;SDS011;5719;42.714;23.732;2024-02-26T02:19:35;12.88;;;7.07;;
11328;SDS011;5719;42.714;23.732;2024-02-26T02:22:03;12.45;;;7.55;;
11328;SDS011;5719;42.714;23.732;2024-02-26T02:24:30;11.38;;;6.60;;
11328;SDS011;5719;42.714;23.732;2024-02-26T02:26:57;13.10;;;6.88;;
11328;SDS011;5719;42.714;23.732;2024-02-26T02:29:23;16.25;;;6.68;;
11328;SDS011;5719;42.714;23.732;2024-02-26T02:31:52;12.48;;;7.03;;
11328;SDS011;5719;42.714;23.732;2024-02-26T02:34:20;15.73;;;6.85;;
11328;SDS011;5719;42.714;23.732;2024-02-26T02:36:48;15.30;;;6.97;;
11328;SDS011;5719;42.714;23.732;2024-02-26T02:39:17;12.65;;;5.95;;
11328;SDS011;5719;42.714;23.732;2024-02-26T02:41:43;11.73;;;6.93;;
11328;SDS011;5719;42.714;23.732;2024-02-26T02:44:10;15.10;;;6.88;;
11328;SDS011;5719;42.714;23.732;2024-02-26T02:46:37;12.45;;;6.68;;
11328;SDS011;5719;42.714;23.732;2024-02-26T02:49:04;13.27;;;6.28;;
11328;SDS011;5719;42.714;23.732;2024-02-26T02:51:34;10.40;;;6.60;;
11328;SDS011;5719;42.714;23.732;2024-02-26T02:54:01;10.18;;;5.88;;
11328;SDS011;5719;42.714;23.732;2024-02-26T02:56:29;10.77;;;5.45;;
11328;SDS011;5719;42.714;23.732;2024-02-26T02:58:56;14.98;;;6.15;;
11328;SDS011;5719;42.714;23.732;2024-02-26T03:01:22;14.60;;;6.05;;
11328;SDS011;5719;42.714;23.732;2024-02-26T03:03:49;10.65;;;5.82;;
11328;SDS011;5719;42.714;23.732;2024-02-26T03:06:16;10.90;;;5.32;;
11328;SDS011;5719;42.714;23.732;2024-02-26T03:08:43;10.65;;;5.47;;
11328;SDS011;5719;42.714;23.732;2024-02-26T03:11:12;9.77;;;5.50;;
11328;SDS011;5719;42.714;23.732;2024-02-26T03:13:41;8.40;;;4.90;;
11328;SDS011;5719;42.714;23.732;2024-02-26T03:16:08;12.50;;;5.40;;
11328;SDS011;5719;42.714;23.732;2024-02-26T03:18:35;9.75;;;5.18;;
11328;SDS011;5719;42.714;23.732;2024-02-26T03:21:02;11.98;;;4.75;;
11328;SDS011;5719;42.714;23.732;2024-02-26T03:23:29;7.75;;;4.95;;
11328;SDS011;5719;42.714;23.732;2024-02-26T03:25:57;6.78;;;4.85;;
11328;SDS011;5719;42.714;23.732;2024-02-26T03:28:24;8.55;;;4.68;;
11328;SDS011;5719;42.714;23.732;2024-02-26T03:30:52;13.63;;;5.50;;
11328;SDS011;5719;42.714;23.732;2024-02-26T03:33:19;6.30;;;4.13;;
11328;SDS011;5719;42.714;23.732;2024-02-26T03:35:46;7.07;;;4.45;;
11328;SDS011;5719;42.714;23.732;2024-02-26T03:38:12;5.82;;;4.60;;
11328;SDS011;5719;42.714;23.732;2024-02-26T03:40:39;9.35;;;5.00;;
11328;SDS011;5719;42.714;23.732;2024-02-26T03:43:06;6.85;;;4.60;;
11328;SDS011;5719;42.714;23.732;2024-02-26T03:45:33;9.00;;;4.80;;
11328;SDS011;5719;42.714;23.732;2024-02-26T03:48:01;11.65;;;4.93;;
11328;SDS011;5719;42.714;23.732;2024-02-26T03:50:28;7.35;;;4.70;;
11328;SDS011;5719;42.714;23.732;2024-02-26T03:52:55;7.63;;;4.88;;
11328;SDS011;5719;42.714;23.732;2024-02-26T03:55:22;9.73;;;4.72;;
11328;SDS011;5719;42.714;23.732;2024-02-26T03:57:50;10.07;;;4.50;;
11328;SDS011;5719;42.714;23.732;2024-02-26T04:00:17;6.93;;;4.95;;
11328;SDS011;5719;42.714;23.732;2024-02-26T04:02:44;7.68;;;5.20;;
11328;SDS011;5719;42.714;23.732;2024-02-26T04:05:12;4.85;;;3.70;;
11328;SDS011;5719;42.714;23.732;2024-02-26T04:07:39;7.30;;;3.50;;
11328;SDS011;5719;42.714;23.732;2024-02-26T04:10:08;6.55;;;3.60;;
11328;SDS011;5719;42.714;23.732;2024-02-26T04:12:36;6.15;;;4.72;;
11328;SDS011;5719;42.714;23.732;2024-02-26T04:15:05;10.10;;;5.28;;
11328;SDS011;5719;42.714;23.732;2024-02-26T04:17:32;8.45;;;5.35;;
11328;SDS011;5719;42.714;23.732;2024-02-26T04:19:59;10.65;;;5.22;;
11328;SDS011;5719;42.714;23.732;2024-02-26T04:22:29;7.78;;;5.13;;
11328;SDS011;5719;42.714;23.732;2024-02-26T04:24:56;7.85;;;5.18;;
11328;SDS011;5719;42.714;23.732;2024-02-26T04:27:23;8.63;;;5.90;;
11328;SDS011;5719;42.714;23.732;2024-02-26T04:29:49;7.05;;;4.65;;
11328;SDS011;5719;42.714;23.732;2024-02-26T04:32:16;6.50;;;4.60;;
11328;SDS011;5719;42.714;23.732;2024-02-26T04:34:43;6.07;;;4.07;;
11328;SDS011;5719;42.714;23.732;2024-02-26T04:37:09;6.95;;;4.43;;
11328;SDS011;5719;42.714;23.732;2024-02-26T04:39:38;5.40;;;4.15;;
11328;SDS011;5719;42.714;23.732;2024-02-26T04:42:04;7.75;;;4.10;;
11328;SDS011;5719;42.714;23.732;2024-02-26T04:44:31;6.82;;;4.35;;
11328;SDS011;5719;42.714;23.732;2024-02-26T04:46:58;7.43;;;5.28;;
11328;SDS011;5719;42.714;23.732;2024-02-26T04:49:26;14.18;;;6.50;;
11328;SDS011;5719;42.714;23.732;2024-02-26T04:51:53;9.18;;;5.80;;
11328;SDS011;5719;42.714;23.732;2024-02-26T04:54:20;6.95;;;5.43;;
11328;SDS011;5719;42.714;23.732;2024-02-26T04:56:48;10.65;;;5.65;;
11328;SDS011;5719;42.714;23.732;2024-02-26T04:59:15;16.10;;;9.02;;
11328;SDS011;5719;42.714;23.732;2024-02-26T05:01:42;19.23;;;10.85;;
11328;SDS011;5719;42.714;23.732;2024-02-26T05:04:08;13.93;;;8.93;;
11328;SDS011;5719;42.714;23.732;2024-02-26T05:06:36;23.38;;;12.80;;
11328;SDS011;5719;42.714;23.732;2024-02-26T05:09:03;18.60;;;11.75;;
11328;SDS011;5719;42.714;23.732;2024-02-26T05:11:30;13.50;;;7.93;;
11328;SDS011;5719;42.714;23.732;2024-02-26T05:13:58;10.63;;;7.18;;
11328;SDS011;5719;42.714;23.732;2024-02-26T05:16:25;13.60;;;6.90;;
11328;SDS011;5719;42.714;23.732;2024-02-26T05:18:52;13.82;;;8.75;;
11328;SDS011;5719;42.714;23.732;2024-02-26T05:21:19;14.25;;;8.63;;
11328;SDS011;5719;42.714;23.732;2024-02-26T05:23:45;19.05;;;10.70;;
11328;SDS011;5719;42.714;23.732;2024-02-26T05:26:18;24.67;;;13.30;;
11328;SDS011;5719;42.714;23.732;2024-02-26T05:28:46;22.17;;;12.68;;
11328;SDS011;5719;42.714;23.732;2024-02-26T05:31:14;21.45;;;12.23;;
11328;SDS011;5719;42.714;23.732;2024-02-26T05:33:42;18.48;;;9.43;;
11328;SDS011;5719;42.714;23.732;2024-02-26T05:36:09;13.75;;;8.80;;
11328;SDS011;5719;42.714;23.732;2024-02-26T05:38:35;13.20;;;7.30;;
11328;SDS011;5719;42.714;23.732;2024-02-26T05:41:02;14.30;;;8.00;;
11328;SDS011;5719;42.714;23.732;2024-02-26T05:43:30;10.65;;;7.10;;
11328;SDS011;5719;42.714;23.732;2024-02-26T05:45:57;11.65;;;7.93;;
11328;SDS011;5719;42.714;23.732;2024-02-26T05:48:25;21.52;;;10.85;;
11328;SDS011;5719;42.714;23.732;2024-02-26T05:50:52;16.15;;;8.93;;
11328;SDS011;5719;42.714;23.732;2024-02-26T05:53:18;12.40;;;7.13;;
11328;SDS011;5719;42.714;23.732;2024-02-26T05:55:45;12.48;;;7.25;;
11328;SDS011;5719;42.714;23.732;2024-02-26T05:58:12;15.82;;;6.57;;
11328;SDS011;5719;42.714;23.732;2024-02-26T06:00:39;12.57;;;6.65;;
11328;SDS011;5719;42.714;23.732;2024-02-26T06:03:06;11.80;;;7.03;;
11328;SDS011;5719;42.714;23.732;2024-02-26T06:05:34;11.43;;;6.95;;
11328;SDS011;5719;42.714;23.732;2024-02-26T06:08:01;14.80;;;6.22;;
11328;SDS011;5719;42.714;23.732;2024-02-26T06:10:28;19.40;;;7.68;;
11328;SDS011;5719;42.714;23.732;2024-02-26T06:12:55;14.27;;;8.10;;
11328;SDS011;5719;42.714;23.732;2024-02-26T06:15:21;11.52;;;7.50;;
11328;SDS011;5719;42.714;23.732;2024-02-26T06:17:49;10.23;;;7.68;;
11328;SDS011;5719;42.714;23.732;2024-02-26T06:20:15;21.20;;;7.55;;
11328;SDS011;5719;42.714;23.732;2024-02-26T06:22:43;11.68;;;6.75;;
11328;SDS011;5719;42.714;23.732;2024-02-26T06:25:10;11.20;;;7.10;;
11328;SDS011;5719;42.714;23.732;2024-02-26T06:27:37;13.80;;;6.85;;
11328;SDS011;5719;42.714;23.732;2024-02-26T06:30:04;12.25;;;7.60;;
11328;SDS011;5719;42.714;23.732;2024-02-26T06:32:32;15.55;;;7.47;;
11328;SDS011;5719;42.714;23.732;2024-02-26T06:34:58;13.05;;;6.90;;
11328;SDS011;5719;42.714;23.732;2024-02-26T06:37:25;12.15;;;7.30;;
11328;SDS011;5719;42.714;23.732;2024-02-26T06:39:53;20.00;;;9.48;;
11328;SDS011;5719;42.714;23.732;2024-02-26T06:42:20;13.18;;;9.00;;
11328;SDS011;5719;42.714;23.732;2024-02-26T06:44:47;12.82;;;8.50;;
11328;SDS011;5719;42.714;23.732;2024-02-26T06:47:14;15.90;;;10.02;;
11328;SDS011;5719;42.714;23.732;2024-02-26T06:49:40;16.92;;;10.27;;
11328;SDS011;5719;42.714;23.732;2024-02-26T06:52:07;25.25;;;11.57;;
11328;SDS011;5719;42.714;23.732;2024-02-26T06:54:34;14.20;;;10.07;;
11328;SDS011;5719;42.714;23.732;2024-02-26T06:57:02;19.70;;;11.38;;
11328;SDS011;5719;42.714;23.732;2024-02-26T06:59:29;21.23;;;12.93;;
11328;SDS011;5719;42.714;23.732;2024-02-26T07:01:56;18.95;;;12.20;;
11328;SDS011;5719;42.714;23.732;2024-02-26T07:04:23;18.00;;;12.32;;
11328;SDS011;5719;42.714;23.732;2024-02-26T07:06:49;19.33;;;11.68;;
11328;SDS011;5719;42.714;23.732;2024-02-26T07:09:16;15.18;;;10.50;;
11328;SDS011;5719;42.714;23.732;2024-02-26T07:11:43;15.48;;;9.63;;
11328;SDS011;5719;42.714;23.732;2024-02-26T07:14:11;16.50;;;8.90;;
11328;SDS011;5719;42.714;23.732;2024-02-26T07:16:38;10.70;;;6.20;;
11328;SDS011;5719;42.714;23.732;2024-02-26T07:19:05;20.92;;;8.45;;
11328;SDS011;5719;42.714;23.732;2024-02-26T07:21:32;14.02;;;7.22;;
11328;SDS011;5719;42.714;23.732;2024-02-26T07:23:59;11.07;;;6.22;;
11328;SDS011;5719;42.714;23.732;2024-02-26T07:26:26;10.32;;;6.53;;
11328;SDS011;5719;42.714;23.732;2024-02-26T07:28:55;9.15;;;5.80;;
11328;SDS011;5719;42.714;23.732;2024-02-26T07:31:23;18.27;;;5.20;;
11328;SDS011;5719;42.714;23.732;2024-02-26T07:33:49;7.72;;;5.07;;
11328;SDS011;5719;42.714;23.732;2024-02-26T07:36:16;11.80;;;5.38;;
11328;SDS011;5719;42.714;23.732;2024-02-26T07:38:43;9.23;;;4.70;;
11328;SDS011;5719;42.714;23.732;2024-02-26T07:41:09;6.05;;;3.83;;
11328;SDS011;5719;42.714;23.732;2024-02-26T07:43:35;7.35;;;3.10;;
11328;SDS011;5719;42.714;23.732;2024-02-26T07:46:02;6.13;;;3.03;;
11328;SDS011;5719;42.714;23.732;2024-02-26T07:48:31;3.85;;;3.20;;
11328;SDS011;5719;42.714;23.732;2024-02-26T07:50:58;8.13;;;3.55;;
11328;SDS011;5719;42.714;23.732;2024-02-26T07:53:25;3.75;;;3.20;;
11328;SDS011;5719;42.714;23.732;2024-02-26T07:55:52;3.20;;;2.90;;
11328;SDS011;5719;42.714;23.732;2024-02-26T07:58:19;5.32;;;3.22;;
11328;SDS011;5719;42.714;23.732;2024-02-26T08:00:46;6.20;;;3.10;;
11328;SDS011;5719;42.714;23.732;2024-02-26T08:03:12;6.40;;;3.35;;
11328;SDS011;5719;42.714;23.732;2024-02-26T08:05:42;6.22;;;3.70;;
11328;SDS011;5719;42.714;23.732;2024-02-26T08:08:09;6.57;;;3.95;;
11328;SDS011;5719;42.714;23.732;2024-02-26T08:10:35;7.55;;;3.83;;
11328;SDS011;5719;42.714;23.732;2024-02-26T08:13:02;4.93;;;3.70;;
11328;SDS011;5719;42.714;23.732;2024-02-26T08:15:31;5.97;;;3.70;;
11328;SDS011;5719;42.714;23.732;2024-02-26T08:17:59;11.30;;;3.88;;
11328;SDS011;5719;42.714;23.732;2024-02-26T08:20:27;10.23;;;3.78;;
11328;SDS011;5719;42.714;23.732;2024-02-26T08:22:55;5.18;;;3.40;;
11328;SDS011;5719;42.714;23.732;2024-02-26T08:25:22;3.72;;;3.30;;
11328;SDS011;5719;42.714;23.732;2024-02-26T08:27:49;6.85;;;3.55;;
11328;SDS011;5719;42.714;23.732;2024-02-26T08:30:16;5.30;;;3.40;;
11328;SDS011;5719;42.714;23.732;2024-02-26T08:32:43;6.57;;;3.50;;
11328;SDS011;5719;42.714;23.732;2024-02-26T08:35:10;8.35;;;3.08;;
11328;SDS011;5719;42.714;23.732;2024-02-26T08:37:37;6.82;;;3.20;;
11328;SDS011;5719;42.714;23.732;2024-02-26T08:40:06;3.65;;;2.95;;
11328;SDS011;5719;42.714;23.732;2024-02-26T08:42:33;4.55;;;3.08;;
11328;SDS011;5719;42.714;23.732;2024-02-26T08:45:00;5.10;;;3.13;;
11328;SDS011;5719;42.714;23.732;2024-02-26T08:47:27;5.93;;;3.30;;
11328;SDS011;5719;42.714;23.732;2024-02-26T08:49:54;7.45;;;3.47;;
11328;SDS011;5719;42.714;23.732;2024-02-26T08:52:21;7.57;;;3.17;;
11328;SDS011;5719;42.714;23.732;2024-02-26T08:54:48;9.55;;;3.20;;
11328;SDS011;5719;42.714;23.732;2024-02-26T08:57:17;7.78;;;3.60;;
11328;SDS011;5719;42.714;23.732;2024-02-26T08:59:44;5.25;;;2.85;;
11328;SDS011;5719;42.714;23.732;2024-02-26T09:02:10;9.50;;;3.40;;
11328;SDS011;5719;42.714;23.732;2024-02-26T09:04:37;4.00;;;3.00;;
11328;SDS011;5719;42.714;23.732;2024-02-26T09:07:04;5.90;;;3.20;;
11328;SDS011;5719;42.714;23.732;2024-02-26T09:09:31;8.55;;;3.53;;
11328;SDS011;5719;42.714;23.732;2024-02-26T09:11:58;4.65;;;3.05;;
11328;SDS011;5719;42.714;23.732;2024-02-26T09:14:26;6.55;;;3.33;;
11328;SDS011;5719;42.714;23.732;2024-02-26T09:16:53;7.70;;;3.47;;
11328;SDS011;5719;42.714;23.732;2024-02-26T09:19:20;5.35;;;2.97;;
11328;SDS011;5719;42.714;23.732;2024-02-26T09:21:46;8.00;;;3.97;;
11328;SDS011;5719;42.714;23.732;2024-02-26T09:24:13;8.10;;;3.55;;
11328;SDS011;5719;42.714;23.732;2024-02-26T09:26:40;5.70;;;3.58;;
11328;SDS011;5719;42.714;23.732;2024-02-26T09:29:07;7.43;;;3.42;;
11328;SDS011;5719;42.714;23.732;2024-02-26T09:31:35;5.28;;;3.33;;
11328;SDS011;5719;42.714;23.732;2024-02-26T09:34:02;6.28;;;3.42;;
11328;SDS011;5719;42.714;23.732;2024-02-26T09:36:29;7.15;;;3.03;;
11328;SDS011;5719;42.714;23.732;2024-02-26T09:38:56;6.55;;;3.28;;
11328;SDS011;5719;42.714;23.732;2024-02-26T09:41:23;7.28;;;3.25;;
11328;SDS011;5719;42.714;23.732;2024-02-26T09:43:55;5.80;;;2.60;;
11328;SDS011;5719;42.714;23.732;2024-02-26T09:46:23;6.68;;;2.97;;
11328;SDS011;5719;42.714;23.732;2024-02-26T09:48:52;4.30;;;2.92;;
11328;SDS011;5719;42.714;23.732;2024-02-26T09:51:20;3.78;;;2.80;;
11328;SDS011;5719;42.714;23.732;2024-02-26T09:53:50;3.20;;;2.33;;
11328;SDS011;5719;42.714;23.732;2024-02-26T09:56:18;5.50;;;2.97;;
11328;SDS011;5719;42.714;23.732;2024-02-26T09:58:45;7.28;;;2.75;;
11328;SDS011;5719;42.714;23.732;2024-02-26T10:01:17;2.92;;;2.60;;
11328;SDS011;5719;42.714;23.732;2024-02-26T10:03:44;7.78;;;2.80;;
11328;SDS011;5719;42.714;23.732;2024-02-26T10:08:47;5.25;;;3.15;;
11328;SDS011;5719;42.714;23.732;2024-02-26T10:11:14;6.25;;;3.03;;
11328;SDS011;5719;42.714;23.732;2024-02-26T10:13:42;12.77;;;3.25;;
11328;SDS011;5719;42.714;23.732;2024-02-26T10:16:09;6.50;;;3.53;;
11328;SDS011;5719;42.714;23.732;2024-02-26T10:18:44;6.72;;;3.28;;
11328;SDS011;5719;42.714;23.732;2024-02-26T10:21:11;6.30;;;3.28;;
11328;SDS011;5719;42.714;23.732;2024-02-26T10:23:40;4.07;;;2.90;;
11328;SDS011;5719;42.714;23.732;2024-02-26T10:26:07;12.85;;;3.08;;
11328;SDS011;5719;42.714;23.732;2024-02-26T10:28:36;7.03;;;3.33;;
11328;SDS011;5719;42.714;23.732;2024-02-26T10:31:03;8.00;;;3.35;;
11328;SDS011;5719;42.714;23.732;2024-02-26T10:33:30;5.20;;;3.28;;
11328;SDS011;5719;42.714;23.732;2024-02-26T10:35:59;7.15;;;3.30;;
11328;SDS011;5719;42.714;23.732;2024-02-26T10:38:25;5.30;;;3.38;;
11328;SDS011;5719;42.714;23.732;2024-02-26T10:40:54;4.78;;;3.33;;
11328;SDS011;5719;42.714;23.732;2024-02-26T10:43:20;8.57;;;3.42;;
11328;SDS011;5719;42.714;23.732;2024-02-26T10:45:47;5.35;;;3.53;;
11328;SDS011;5719;42.714;23.732;2024-02-26T10:48:14;10.00;;;3.60;;
11328;SDS011;5719;42.714;23.732;2024-02-26T10:50:42;8.02;;;3.65;;
11328;SDS011;5719;42.714;23.732;2024-02-26T10:53:12;7.38;;;3.30;;
11328;SDS011;5719;42.714;23.732;2024-02-26T10:55:42;10.23;;;3.50;;
11328;SDS011;5719;42.714;23.732;2024-02-26T10:58:15;6.40;;;3.30;;
11328;SDS011;5719;42.714;23.732;2024-02-26T11:00:43;3.72;;;2.55;;
11328;SDS011;5719;42.714;23.732;2024-02-26T11:03:12;6.35;;;3.35;;
11328;SDS011;5719;42.714;23.732;2024-02-26T11:05:42;5.60;;;3.35;;
11328;SDS011;5719;42.714;23.732;2024-02-26T11:08:10;6.40;;;3.47;;
11328;SDS011;5719;42.714;23.732;2024-02-26T11:10:38;4.88;;;3.17;;
11328;SDS011;5719;42.714;23.732;2024-02-26T11:13:06;6.10;;;3.20;;
11328;SDS011;5719;42.714;23.732;2024-02-26T11:15:39;7.32;;;3.33;;
11328;SDS011;5719;42.714;23.732;2024-02-26T11:18:06;7.75;;;2.90;;
11328;SDS011;5719;42.714;23.732;2024-02-26T11:20:34;3.85;;;2.78;;
11328;SDS011;5719;42.714;23.732;2024-02-26T11:23:04;6.72;;;3.60;;
11328;SDS011;5719;42.714;23.732;2024-02-26T11:25:31;6.63;;;3.00;;
11328;SDS011;5719;42.714;23.732;2024-02-26T11:27:58;6.45;;;3.28;;
11328;SDS011;5719;42.714;23.732;2024-02-26T11:30:29;4.18;;;2.80;;
11328;SDS011;5719;42.714;23.732;2024-02-26T11:32:59;4.28;;;2.63;;
11328;SDS011;5719;42.714;23.732;2024-02-26T11:35:26;7.15;;;3.05;;
11328;SDS011;5719;42.714;23.732;2024-02-26T11:37:55;3.50;;;2.63;;
11328;SDS011;5719;42.714;23.732;2024-02-26T11:40:23;6.97;;;3.47;;
11328;SDS011;5719;42.714;23.732;2024-02-26T11:42:50;5.07;;;2.55;;
11328;SDS011;5719;42.714;23.732;2024-02-26T11:48:22;4.55;;;2.53;;
11328;SDS011;5719;42.714;23.732;2024-02-26T11:50:50;4.75;;;2.67;;
11328;SDS011;5719;42.714;23.732;2024-02-26T11:53:24;6.95;;;2.88;;
11328;SDS011;5719;42.714;23.732;2024-02-26T11:58:48;7.72;;;2.28;;
11328;SDS011;5719;42.714;23.732;2024-02-26T12:04:07;3.92;;;2.35;;
11328;SDS011;5719;42.714;23.732;2024-02-26T12:06:47;9.77;;;3.00;;
11328;SDS011;5719;42.714;23.732;2024-02-26T12:09:34;5.03;;;2.35;;
11328;SDS011;5719;42.714;23.732;2024-02-26T12:12:03;6.63;;;2.22;;
11328;SDS011;5719;42.714;23.732;2024-02-26T12:14:32;7.00;;;2.28;;
11328;SDS011;5719;42.714;23.732;2024-02-26T12:17:00;2.58;;;1.90;;
11328;SDS011;5719;42.714;23.732;2024-02-26T12:19:29;2.53;;;2.20;;
11328;SDS011;5719;42.714;23.732;2024-02-26T12:21:57;5.43;;;2.30;;
11328;SDS011;5719;42.714;23.732;2024-02-26T12:24:24;4.07;;;1.92;;
11328;SDS011;5719;42.714;23.732;2024-02-26T12:26:51;13.13;;;2.20;;
11328;SDS011;5719;42.714;23.732;2024-02-26T12:29:18;5.32;;;2.40;;
11328;SDS011;5719;42.714;23.732;2024-02-26T12:31:44;2.67;;;2.30;;
11328;SDS011;5719;42.714;23.732;2024-02-26T12:34:11;6.28;;;2.63;;
11328;SDS011;5719;42.714;23.732;2024-02-26T12:36:40;5.00;;;2.20;;
11328;SDS011;5719;42.714;23.732;2024-02-26T12:39:07;3.15;;;2.25;;
11328;SDS011;5719;42.714;23.732;2024-02-26T12:41:34;6.95;;;2.45;;
11328;SDS011;5719;42.714;23.732;2024-02-26T12:44:01;5.45;;;2.40;;
11328;SDS011;5719;42.714;23.732;2024-02-26T12:46:28;4.72;;;2.25;;
11328;SDS011;5719;42.714;23.732;2024-02-26T12:48:55;3.10;;;2.60;;
11328;SDS011;5719;42.714;23.732;2024-02-26T12:51:23;2.88;;;2.08;;
11328;SDS011;5719;42.714;23.732;2024-02-26T12:53:52;5.88;;;2.20;;
11328;SDS011;5719;42.714;23.732;2024-02-26T12:56:20;4.63;;;1.80;;
11328;SDS011;5719;42.714;23.732;2024-02-26T12:58:48;7.80;;;2.42;;
11328;SDS011;5719;42.714;23.732;2024-02-26T13:01:17;4.90;;;2.10;;
11328;SDS011;5719;42.714;23.732;2024-02-26T13:03:46;4.28;;;2.17;;
11328;SDS011;5719;42.714;23.732;2024-02-26T13:06:13;6.75;;;2.08;;
11328;SDS011;5719;42.714;23.732;2024-02-26T13:08:40;4.68;;;2.15;;
11328;SDS011;5719;42.714;23.732;2024-02-26T13:11:09;5.30;;;2.00;;
11328;SDS011;5719;42.714;23.732;2024-02-26T13:13:36;3.72;;;2.35;;
11328;SDS011;5719;42.714;23.732;2024-02-26T13:16:03;6.63;;;2.50;;
11328;SDS011;5719;42.714;23.732;2024-02-26T13:18:31;6.30;;;2.20;;
11328;SDS011;5719;42.714;23.732;2024-02-26T13:21:08;2.40;;;2.10;;
11328;SDS011;5719;42.714;23.732;2024-02-26T13:23:36;6.28;;;2.40;;
11328;SDS011;5719;42.714;23.732;2024-02-26T13:26:03;4.05;;;2.20;;
11328;SDS011;5719;42.714;23.732;2024-02-26T13:28:32;2.58;;;2.00;;
11328;SDS011;5719;42.714;23.732;2024-02-26T13:30:59;9.38;;;2.72;;
11328;SDS011;5719;42.714;23.732;2024-02-26T13:33:28;4.25;;;2.38;;
11328;SDS011;5719;42.714;23.732;2024-02-26T13:35:56;2.92;;;2.00;;
11328;SDS011;5719;42.714;23.732;2024-02-26T13:38:24;5.05;;;2.88;;
11328;SDS011;5719;42.714;23.732;2024-02-26T13:40:51;4.45;;;2.38;;
11328;SDS011;5719;42.714;23.732;2024-02-26T13:43:18;4.20;;;2.28;;
11328;SDS011;5719;42.714;23.732;2024-02-26T13:45:46;6.10;;;2.40;;
11328;SDS011;5719;42.714;23.732;2024-02-26T13:48:13;5.60;;;2.70;;
11328;SDS011;5719;42.714;23.732;2024-02-26T13:50:41;3.17;;;2.20;;
11328;SDS011;5719;42.714;23.732;2024-02-26T13:53:10;6.80;;;2.22;;
11328;SDS011;5719;42.714;23.732;2024-02-26T13:55:37;7.68;;;2.47;;
11328;SDS011;5719;42.714;23.732;2024-02-26T13:58:05;4.72;;;2.60;;
11328;SDS011;5719;42.714;23.732;2024-02-26T14:00:32;3.28;;;2.50;;
11328;SDS011;5719;42.714;23.732;2024-02-26T14:03:01;5.90;;;2.63;;
11328;SDS011;5719;42.714;23.732;2024-02-26T14:05:28;9.57;;;2.58;;
11328;SDS011;5719;42.714;23.732;2024-02-26T14:07:55;5.18;;;2.72;;
11328;SDS011;5719;42.714;23.732;2024-02-26T14:10:22;5.75;;;2.40;;
11328;SDS011;5719;42.714;23.732;2024-02-26T14:12:49;4.35;;;2.58;;
11328;SDS011;5719;42.714;23.732;2024-02-26T14:15:16;7.05;;;2.38;;
11328;SDS011;5719;42.714;23.732;2024-02-26T14:17:43;9.82;;;2.80;;
11328;SDS011;5719;42.714;23.732;2024-02-26T14:20:12;6.07;;;2.38;;
11328;SDS011;5719;42.714;23.732;2024-02-26T14:22:39;4.10;;;2.08;;
11328;SDS011;5719;42.714;23.732;2024-02-26T14:25:06;6.47;;;2.55;;
11328;SDS011;5719;42.714;23.732;2024-02-26T14:27:34;3.38;;;2.28;;
11328;SDS011;5719;42.714;23.732;2024-02-26T14:30:01;4.60;;;2.10;;
11328;SDS011;5719;42.714;23.732;2024-02-26T14:32:28;2.95;;;2.20;;
11328;SDS011;5719;42.714;23.732;2024-02-26T14:34:56;4.30;;;2.30;;
11328;SDS011;5719;42.714;23.732;2024-02-26T14:37:24;3.70;;;2.08;;
11328;SDS011;5719;42.714;23.732;2024-02-26T14:39:51;7.15;;;2.53;;
11328;SDS011;5719;42.714;23.732;2024-02-26T14:42:18;4.35;;;2.33;;
11328;SDS011;5719;42.714;23.732;2024-02-26T14:44:45;12.20;;;2.17;;
11328;SDS011;5719;42.714;23.732;2024-02-26T14:47:12;7.15;;;2.60;;
11328;SDS011;5719;42.714;23.732;2024-02-26T14:49:39;3.85;;;2.33;;
11328;SDS011;5719;42.714;23.732;2024-02-26T14:52:06;4.13;;;2.17;;
11328;SDS011;5719;42.714;23.732;2024-02-26T14:54:34;7.88;;;3.25;;
11328;SDS011;5719;42.714;23.732;2024-02-26T14:57:04;3.70;;;2.38;;